sensor_id;sensor_type;location;lat;lon;timestamp;P1;durP1;ratioP1;P2;durP2;ratioP2
16286;SDS011;8251;53.568;10.018;2023-04-25T00:02:12;5.27;;;1.90;;
16286;SDS011;8251;53.568;10.018;2023-04-25T00:04:40;3.87;;;2.50;;
16286;SDS011;8251;53.568;10.018;2023-04-25T00:07:07;13.50;;;2.30;;
16286;SDS011;8251;53.568;10.018;2023-04-25T00:09:35;10.67;;;2.70;;
16286;SDS011;8251;53.568;10.018;2023-04-25T00:12:02;4.73;;;1.87;;
16286;SDS011;8251;53.568;10.018;2023-04-25T00:14:33;9.93;;;2.23;;
16286;SDS011;8251;53.568;10.018;2023-04-25T00:17:03;6.60;;;2.57;;
16286;SDS011;8251;53.568;10.018;2023-04-25T00:19:30;6.67;;;2.37;;
16286;SDS011;8251;53.568;10.018;2023-04-25T00:22:00;15.97;;;2.60;;
16286;SDS011;8251;53.568;10.018;2023-04-25T00:24:27;7.93;;;2.30;;
16286;SDS011;8251;53.568;10.018;2023-04-25T00:26:54;11.97;;;2.60;;
16286;SDS011;8251;53.568;10.018;2023-04-25T00:29:21;8.70;;;3.00;;
16286;SDS011;8251;53.568;10.018;2023-04-25T00:31:49;8.53;;;2.60;;
16286;SDS011;8251;53.568;10.018;2023-04-25T00:34:16;6.57;;;2.17;;
16286;SDS011;8251;53.568;10.018;2023-04-25T00:36:43;14.63;;;3.00;;
16286;SDS011;8251;53.568;10.018;2023-04-25T00:39:11;14.47;;;2.87;;
16286;SDS011;8251;53.568;10.018;2023-04-25T00:41:38;16.40;;;4.33;;
16286;SDS011;8251;53.568;10.018;2023-04-25T00:44:07;11.00;;;2.20;;
16286;SDS011;8251;53.568;10.018;2023-04-25T00:46:36;7.57;;;1.93;;
16286;SDS011;8251;53.568;10.018;2023-04-25T00:49:05;14.43;;;2.63;;
16286;SDS011;8251;53.568;10.018;2023-04-25T00:51:33;14.50;;;2.20;;
16286;SDS011;8251;53.568;10.018;2023-04-25T00:54:00;14.20;;;3.30;;
16286;SDS011;8251;53.568;10.018;2023-04-25T00:56:27;12.97;;;3.47;;
16286;SDS011;8251;53.568;10.018;2023-04-25T00:58:57;18.93;;;4.17;;
16286;SDS011;8251;53.568;10.018;2023-04-25T01:01:24;11.93;;;1.97;;
16286;SDS011;8251;53.568;10.018;2023-04-25T01:03:57;16.07;;;2.73;;
16286;SDS011;8251;53.568;10.018;2023-04-25T01:06:26;16.07;;;2.63;;
16286;SDS011;8251;53.568;10.018;2023-04-25T01:08:53;15.97;;;2.90;;
16286;SDS011;8251;53.568;10.018;2023-04-25T01:11:20;11.87;;;3.37;;
16286;SDS011;8251;53.568;10.018;2023-04-25T01:13:47;15.97;;;5.00;;
16286;SDS011;8251;53.568;10.018;2023-04-25T01:16:14;15.17;;;3.80;;
16286;SDS011;8251;53.568;10.018;2023-04-25T01:18:42;8.13;;;2.60;;
16286;SDS011;8251;53.568;10.018;2023-04-25T01:21:11;12.30;;;3.90;;
16286;SDS011;8251;53.568;10.018;2023-04-25T01:23:38;12.97;;;2.50;;
16286;SDS011;8251;53.568;10.018;2023-04-25T01:26:09;19.77;;;4.77;;
16286;SDS011;8251;53.568;10.018;2023-04-25T01:28:37;14.97;;;3.07;;
16286;SDS011;8251;53.568;10.018;2023-04-25T01:31:06;12.73;;;3.20;;
16286;SDS011;8251;53.568;10.018;2023-04-25T01:33:36;8.77;;;2.40;;
16286;SDS011;8251;53.568;10.018;2023-04-25T01:36:06;11.83;;;3.10;;
16286;SDS011;8251;53.568;10.018;2023-04-25T01:38:34;12.50;;;2.97;;
16286;SDS011;8251;53.568;10.018;2023-04-25T01:41:01;11.83;;;2.83;;
16286;SDS011;8251;53.568;10.018;2023-04-25T01:43:28;9.90;;;2.50;;
16286;SDS011;8251;53.568;10.018;2023-04-25T01:45:55;12.70;;;3.27;;
16286;SDS011;8251;53.568;10.018;2023-04-25T01:48:23;15.43;;;3.43;;
16286;SDS011;8251;53.568;10.018;2023-04-25T01:50:50;10.67;;;2.90;;
16286;SDS011;8251;53.568;10.018;2023-04-25T01:53:17;14.47;;;2.80;;
16286;SDS011;8251;53.568;10.018;2023-04-25T01:55:49;18.50;;;3.33;;
16286;SDS011;8251;53.568;10.018;2023-04-25T01:58:18;14.20;;;3.13;;
16286;SDS011;8251;53.568;10.018;2023-04-25T02:00:45;9.77;;;3.60;;
16286;SDS011;8251;53.568;10.018;2023-04-25T02:03:15;18.40;;;3.73;;
16286;SDS011;8251;53.568;10.018;2023-04-25T02:05:42;12.80;;;3.30;;
16286;SDS011;8251;53.568;10.018;2023-04-25T02:08:12;12.40;;;3.00;;
16286;SDS011;8251;53.568;10.018;2023-04-25T02:10:42;17.53;;;3.20;;
16286;SDS011;8251;53.568;10.018;2023-04-25T02:13:12;16.37;;;3.80;;
16286;SDS011;8251;53.568;10.018;2023-04-25T02:15:39;9.33;;;2.40;;
16286;SDS011;8251;53.568;10.018;2023-04-25T02:18:08;16.30;;;3.30;;
16286;SDS011;8251;53.568;10.018;2023-04-25T02:20:36;13.03;;;3.37;;
16286;SDS011;8251;53.568;10.018;2023-04-25T02:23:03;13.90;;;3.10;;
16286;SDS011;8251;53.568;10.018;2023-04-25T02:25:31;11.53;;;3.07;;
16286;SDS011;8251;53.568;10.018;2023-04-25T02:27:58;11.43;;;3.47;;
16286;SDS011;8251;53.568;10.018;2023-04-25T02:30:26;15.43;;;2.73;;
16286;SDS011;8251;53.568;10.018;2023-04-25T02:32:53;9.77;;;2.80;;
16286;SDS011;8251;53.568;10.018;2023-04-25T02:35:21;12.87;;;3.47;;
16286;SDS011;8251;53.568;10.018;2023-04-25T02:37:48;16.00;;;4.40;;
16286;SDS011;8251;53.568;10.018;2023-04-25T02:40:15;9.07;;;2.83;;
16286;SDS011;8251;53.568;10.018;2023-04-25T02:42:42;20.53;;;3.80;;
16286;SDS011;8251;53.568;10.018;2023-04-25T02:45:12;13.30;;;2.53;;
16286;SDS011;8251;53.568;10.018;2023-04-25T02:47:40;19.77;;;4.00;;
16286;SDS011;8251;53.568;10.018;2023-04-25T02:50:07;15.07;;;3.13;;
16286;SDS011;8251;53.568;10.018;2023-04-25T02:52:37;17.13;;;4.87;;
16286;SDS011;8251;53.568;10.018;2023-04-25T02:55:07;19.87;;;3.83;;
16286;SDS011;8251;53.568;10.018;2023-04-25T02:57:35;15.03;;;2.97;;
16286;SDS011;8251;53.568;10.018;2023-04-25T03:00:03;14.20;;;2.90;;
16286;SDS011;8251;53.568;10.018;2023-04-25T03:02:31;11.47;;;2.60;;
16286;SDS011;8251;53.568;10.018;2023-04-25T03:04:59;14.87;;;2.70;;
16286;SDS011;8251;53.568;10.018;2023-04-25T03:07:26;11.47;;;3.93;;
16286;SDS011;8251;53.568;10.018;2023-04-25T03:09:53;19.73;;;2.83;;
16286;SDS011;8251;53.568;10.018;2023-04-25T03:12:21;12.93;;;2.13;;
16286;SDS011;8251;53.568;10.018;2023-04-25T03:14:51;16.20;;;2.37;;
16286;SDS011;8251;53.568;10.018;2023-04-25T03:17:20;9.97;;;2.80;;
16286;SDS011;8251;53.568;10.018;2023-04-25T03:19:47;14.20;;;2.70;;
16286;SDS011;8251;53.568;10.018;2023-04-25T03:22:16;12.40;;;2.57;;
16286;SDS011;8251;53.568;10.018;2023-04-25T03:24:42;11.93;;;3.50;;
16286;SDS011;8251;53.568;10.018;2023-04-25T03:27:09;16.33;;;3.57;;
16286;SDS011;8251;53.568;10.018;2023-04-25T03:29:36;9.97;;;2.07;;
16286;SDS011;8251;53.568;10.018;2023-04-25T03:32:03;5.63;;;2.27;;
16286;SDS011;8251;53.568;10.018;2023-04-25T03:34:30;9.97;;;2.07;;
16286;SDS011;8251;53.568;10.018;2023-04-25T03:36:57;9.83;;;2.60;;
16286;SDS011;8251;53.568;10.018;2023-04-25T03:39:26;6.40;;;3.00;;
16286;SDS011;8251;53.568;10.018;2023-04-25T03:41:53;5.20;;;2.30;;
16286;SDS011;8251;53.568;10.018;2023-04-25T03:44:20;11.30;;;2.43;;
16286;SDS011;8251;53.568;10.018;2023-04-25T03:46:47;10.60;;;2.50;;
16286;SDS011;8251;53.568;10.018;2023-04-25T03:49:19;11.30;;;2.13;;
16286;SDS011;8251;53.568;10.018;2023-04-25T03:51:55;8.40;;;2.50;;
16286;SDS011;8251;53.568;10.018;2023-04-25T03:54:22;7.90;;;3.03;;
16286;SDS011;8251;53.568;10.018;2023-04-25T03:56:51;10.87;;;2.27;;
16286;SDS011;8251;53.568;10.018;2023-04-25T03:59:17;9.60;;;2.13;;
16286;SDS011;8251;53.568;10.018;2023-04-25T04:01:46;9.40;;;2.53;;
16286;SDS011;8251;53.568;10.018;2023-04-25T04:04:13;6.80;;;2.70;;
16286;SDS011;8251;53.568;10.018;2023-04-25T04:06:40;13.07;;;2.47;;
16286;SDS011;8251;53.568;10.018;2023-04-25T04:09:07;12.23;;;3.37;;
16286;SDS011;8251;53.568;10.018;2023-04-25T04:11:37;9.50;;;3.33;;
16286;SDS011;8251;53.568;10.018;2023-04-25T04:14:08;11.07;;;2.50;;
16286;SDS011;8251;53.568;10.018;2023-04-25T04:16:35;8.23;;;3.03;;
16286;SDS011;8251;53.568;10.018;2023-04-25T04:19:02;7.90;;;1.90;;
16286;SDS011;8251;53.568;10.018;2023-04-25T04:21:32;10.40;;;4.00;;
16286;SDS011;8251;53.568;10.018;2023-04-25T04:23:59;7.90;;;2.17;;
16286;SDS011;8251;53.568;10.018;2023-04-25T04:26:26;10.13;;;2.30;;
16286;SDS011;8251;53.568;10.018;2023-04-25T04:28:54;12.60;;;2.27;;
16286;SDS011;8251;53.568;10.018;2023-04-25T04:31:22;10.20;;;2.23;;
16286;SDS011;8251;53.568;10.018;2023-04-25T04:33:49;6.17;;;2.07;;
16286;SDS011;8251;53.568;10.018;2023-04-25T04:36:16;12.37;;;2.30;;
16286;SDS011;8251;53.568;10.018;2023-04-25T04:38:47;7.03;;;2.60;;
16286;SDS011;8251;53.568;10.018;2023-04-25T04:41:13;10.83;;;1.83;;
16286;SDS011;8251;53.568;10.018;2023-04-25T04:43:42;12.77;;;3.03;;
16286;SDS011;8251;53.568;10.018;2023-04-25T04:46:11;15.77;;;2.40;;
16286;SDS011;8251;53.568;10.018;2023-04-25T04:48:44;14.30;;;3.07;;
16286;SDS011;8251;53.568;10.018;2023-04-25T04:51:10;10.83;;;2.17;;
16286;SDS011;8251;53.568;10.018;2023-04-25T04:53:37;8.70;;;2.67;;
16286;SDS011;8251;53.568;10.018;2023-04-25T04:56:04;13.80;;;2.93;;
16286;SDS011;8251;53.568;10.018;2023-04-25T04:58:32;10.37;;;2.37;;
16286;SDS011;8251;53.568;10.018;2023-04-25T05:01:00;5.50;;;1.60;;
16286;SDS011;8251;53.568;10.018;2023-04-25T05:03:27;10.20;;;2.57;;
16286;SDS011;8251;53.568;10.018;2023-04-25T05:05:58;9.63;;;2.57;;
16286;SDS011;8251;53.568;10.018;2023-04-25T05:08:25;5.93;;;1.87;;
16286;SDS011;8251;53.568;10.018;2023-04-25T05:10:51;9.93;;;4.17;;
16286;SDS011;8251;53.568;10.018;2023-04-25T05:13:19;11.43;;;2.40;;
16286;SDS011;8251;53.568;10.018;2023-04-25T05:15:46;12.43;;;2.67;;
16286;SDS011;8251;53.568;10.018;2023-04-25T05:18:12;14.03;;;2.77;;
16286;SDS011;8251;53.568;10.018;2023-04-25T05:20:39;6.43;;;2.27;;
16286;SDS011;8251;53.568;10.018;2023-04-25T05:23:08;8.33;;;2.20;;
16286;SDS011;8251;53.568;10.018;2023-04-25T05:25:35;14.57;;;2.50;;
16286;SDS011;8251;53.568;10.018;2023-04-25T05:28:02;6.97;;;2.33;;
16286;SDS011;8251;53.568;10.018;2023-04-25T05:30:30;7.80;;;1.70;;
16286;SDS011;8251;53.568;10.018;2023-04-25T05:32:57;14.27;;;2.60;;
16286;SDS011;8251;53.568;10.018;2023-04-25T05:35:23;7.87;;;3.47;;
16286;SDS011;8251;53.568;10.018;2023-04-25T05:37:50;10.70;;;2.00;;
16286;SDS011;8251;53.568;10.018;2023-04-25T05:40:19;7.93;;;1.73;;
16286;SDS011;8251;53.568;10.018;2023-04-25T05:42:46;9.80;;;1.90;;
16286;SDS011;8251;53.568;10.018;2023-04-25T05:45:13;7.80;;;2.07;;
16286;SDS011;8251;53.568;10.018;2023-04-25T05:47:40;9.87;;;3.13;;
16286;SDS011;8251;53.568;10.018;2023-04-25T05:50:07;8.93;;;3.30;;
16286;SDS011;8251;53.568;10.018;2023-04-25T05:52:34;8.67;;;2.53;;
16286;SDS011;8251;53.568;10.018;2023-04-25T05:55:01;10.50;;;2.10;;
16286;SDS011;8251;53.568;10.018;2023-04-25T05:57:30;11.83;;;2.67;;
16286;SDS011;8251;53.568;10.018;2023-04-25T05:59:57;7.20;;;2.17;;
16286;SDS011;8251;53.568;10.018;2023-04-25T06:02:24;10.43;;;2.73;;
16286;SDS011;8251;53.568;10.018;2023-04-25T06:04:51;9.30;;;2.50;;
16286;SDS011;8251;53.568;10.018;2023-04-25T06:07:19;11.63;;;2.03;;
16286;SDS011;8251;53.568;10.018;2023-04-25T06:09:46;11.27;;;2.13;;
16286;SDS011;8251;53.568;10.018;2023-04-25T06:12:13;10.23;;;2.13;;
16286;SDS011;8251;53.568;10.018;2023-04-25T06:14:43;5.87;;;2.27;;
16286;SDS011;8251;53.568;10.018;2023-04-25T06:17:11;9.33;;;2.97;;
16286;SDS011;8251;53.568;10.018;2023-04-25T06:19:38;6.97;;;2.37;;
16286;SDS011;8251;53.568;10.018;2023-04-25T06:22:07;6.33;;;2.47;;
16286;SDS011;8251;53.568;10.018;2023-04-25T06:24:34;8.03;;;2.17;;
16286;SDS011;8251;53.568;10.018;2023-04-25T06:27:01;11.23;;;2.40;;
16286;SDS011;8251;53.568;10.018;2023-04-25T06:29:27;4.53;;;2.17;;
16286;SDS011;8251;53.568;10.018;2023-04-25T06:31:56;5.83;;;2.10;;
16286;SDS011;8251;53.568;10.018;2023-04-25T06:34:23;12.77;;;2.67;;
16286;SDS011;8251;53.568;10.018;2023-04-25T06:36:50;9.27;;;2.00;;
16286;SDS011;8251;53.568;10.018;2023-04-25T06:39:30;10.00;;;1.90;;
16286;SDS011;8251;53.568;10.018;2023-04-25T06:42:17;9.20;;;2.30;;
16286;SDS011;8251;53.568;10.018;2023-04-25T06:44:56;9.30;;;2.57;;
16286;SDS011;8251;53.568;10.018;2023-04-25T06:47:30;13.87;;;2.60;;
16286;SDS011;8251;53.568;10.018;2023-04-25T06:50:09;5.30;;;2.13;;
16286;SDS011;8251;53.568;10.018;2023-04-25T06:52:41;7.57;;;1.87;;
16286;SDS011;8251;53.568;10.018;2023-04-25T06:55:08;7.13;;;1.90;;
16286;SDS011;8251;53.568;10.018;2023-04-25T06:57:35;11.57;;;2.50;;
16286;SDS011;8251;53.568;10.018;2023-04-25T07:00:07;6.63;;;2.17;;
16286;SDS011;8251;53.568;10.018;2023-04-25T07:02:42;8.57;;;1.80;;
16286;SDS011;8251;53.568;10.018;2023-04-25T07:05:09;10.67;;;2.90;;
16286;SDS011;8251;53.568;10.018;2023-04-25T07:07:36;10.93;;;1.87;;
16286;SDS011;8251;53.568;10.018;2023-04-25T07:10:06;8.57;;;1.73;;
16286;SDS011;8251;53.568;10.018;2023-04-25T07:12:34;10.70;;;2.10;;
16286;SDS011;8251;53.568;10.018;2023-04-25T07:15:01;6.00;;;2.17;;
16286;SDS011;8251;53.568;10.018;2023-04-25T07:17:31;6.50;;;2.00;;
16286;SDS011;8251;53.568;10.018;2023-04-25T07:20:01;6.30;;;1.80;;
16286;SDS011;8251;53.568;10.018;2023-04-25T07:22:28;7.03;;;1.90;;
16286;SDS011;8251;53.568;10.018;2023-04-25T07:24:55;4.07;;;1.70;;
16286;SDS011;8251;53.568;10.018;2023-04-25T07:27:22;4.10;;;1.83;;
16286;SDS011;8251;53.568;10.018;2023-04-25T07:29:49;10.37;;;2.07;;
16286;SDS011;8251;53.568;10.018;2023-04-25T07:32:16;8.73;;;1.93;;
16286;SDS011;8251;53.568;10.018;2023-04-25T07:34:43;7.47;;;1.97;;
16286;SDS011;8251;53.568;10.018;2023-04-25T07:37:11;7.77;;;1.77;;
16286;SDS011;8251;53.568;10.018;2023-04-25T07:39:40;15.67;;;2.67;;
16286;SDS011;8251;53.568;10.018;2023-04-25T07:42:08;4.87;;;2.13;;
16286;SDS011;8251;53.568;10.018;2023-04-25T07:44:34;13.37;;;2.10;;
16286;SDS011;8251;53.568;10.018;2023-04-25T07:47:04;6.77;;;3.53;;
16286;SDS011;8251;53.568;10.018;2023-04-25T07:49:32;4.93;;;2.27;;
16286;SDS011;8251;53.568;10.018;2023-04-25T07:52:00;6.60;;;2.63;;
16286;SDS011;8251;53.568;10.018;2023-04-25T07:54:28;8.47;;;2.53;;
16286;SDS011;8251;53.568;10.018;2023-04-25T07:56:55;12.47;;;1.77;;
16286;SDS011;8251;53.568;10.018;2023-04-25T07:59:22;2.67;;;1.43;;
16286;SDS011;8251;53.568;10.018;2023-04-25T08:01:49;8.43;;;1.50;;
16286;SDS011;8251;53.568;10.018;2023-04-25T08:04:16;10.17;;;2.17;;
16286;SDS011;8251;53.568;10.018;2023-04-25T08:06:46;6.50;;;2.23;;
16286;SDS011;8251;53.568;10.018;2023-04-25T08:09:13;9.20;;;2.07;;
16286;SDS011;8251;53.568;10.018;2023-04-25T08:11:41;5.43;;;1.63;;
16286;SDS011;8251;53.568;10.018;2023-04-25T08:14:08;8.43;;;1.83;;
16286;SDS011;8251;53.568;10.018;2023-04-25T08:16:36;7.00;;;2.47;;
16286;SDS011;8251;53.568;10.018;2023-04-25T08:19:03;9.90;;;2.23;;
16286;SDS011;8251;53.568;10.018;2023-04-25T08:21:32;6.30;;;1.80;;
16286;SDS011;8251;53.568;10.018;2023-04-25T08:23:59;11.23;;;1.70;;
16286;SDS011;8251;53.568;10.018;2023-04-25T08:26:28;8.47;;;1.90;;
16286;SDS011;8251;53.568;10.018;2023-04-25T08:28:56;5.83;;;2.00;;
16286;SDS011;8251;53.568;10.018;2023-04-25T08:31:23;7.33;;;1.83;;
16286;SDS011;8251;53.568;10.018;2023-04-25T08:33:50;5.20;;;1.97;;
16286;SDS011;8251;53.568;10.018;2023-04-25T08:36:17;7.80;;;2.77;;
16286;SDS011;8251;53.568;10.018;2023-04-25T08:38:45;10.20;;;1.80;;
16286;SDS011;8251;53.568;10.018;2023-04-25T08:41:12;10.70;;;1.93;;
16286;SDS011;8251;53.568;10.018;2023-04-25T08:43:42;6.80;;;1.60;;
16286;SDS011;8251;53.568;10.018;2023-04-25T08:46:16;9.30;;;2.00;;
16286;SDS011;8251;53.568;10.018;2023-04-25T08:48:51;5.53;;;1.67;;
16286;SDS011;8251;53.568;10.018;2023-04-25T08:51:22;7.60;;;1.70;;
16286;SDS011;8251;53.568;10.018;2023-04-25T08:53:50;5.87;;;1.30;;
16286;SDS011;8251;53.568;10.018;2023-04-25T08:56:20;7.40;;;2.93;;
16286;SDS011;8251;53.568;10.018;2023-04-25T08:58:48;5.10;;;1.43;;
16286;SDS011;8251;53.568;10.018;2023-04-25T09:01:17;13.47;;;2.07;;
16286;SDS011;8251;53.568;10.018;2023-04-25T09:03:45;7.43;;;1.40;;
16286;SDS011;8251;53.568;10.018;2023-04-25T09:06:12;9.80;;;2.00;;
16286;SDS011;8251;53.568;10.018;2023-04-25T09:08:41;11.33;;;2.27;;
16286;SDS011;8251;53.568;10.018;2023-04-25T09:11:08;8.90;;;1.60;;
16286;SDS011;8251;53.568;10.018;2023-04-25T09:13:35;7.70;;;1.63;;
16286;SDS011;8251;53.568;10.018;2023-04-25T09:16:02;8.67;;;1.20;;
16286;SDS011;8251;53.568;10.018;2023-04-25T09:18:33;6.63;;;1.80;;
16286;SDS011;8251;53.568;10.018;2023-04-25T09:21:04;6.50;;;2.30;;
16286;SDS011;8251;53.568;10.018;2023-04-25T09:23:38;3.33;;;1.43;;
16286;SDS011;8251;53.568;10.018;2023-04-25T09:26:06;5.93;;;1.40;;
16286;SDS011;8251;53.568;10.018;2023-04-25T09:28:34;5.50;;;1.53;;
16286;SDS011;8251;53.568;10.018;2023-04-25T09:31:03;8.17;;;2.07;;
16286;SDS011;8251;53.568;10.018;2023-04-25T09:33:30;6.23;;;1.90;;
16286;SDS011;8251;53.568;10.018;2023-04-25T09:36:02;5.23;;;1.37;;
16286;SDS011;8251;53.568;10.018;2023-04-25T09:38:31;7.43;;;1.47;;
16286;SDS011;8251;53.568;10.018;2023-04-25T09:40:59;9.53;;;1.80;;
16286;SDS011;8251;53.568;10.018;2023-04-25T09:43:26;7.70;;;1.40;;
16286;SDS011;8251;53.568;10.018;2023-04-25T09:45:54;5.80;;;1.20;;
16286;SDS011;8251;53.568;10.018;2023-04-25T09:48:25;4.40;;;1.47;;
16286;SDS011;8251;53.568;10.018;2023-04-25T09:51:06;6.17;;;1.43;;
16286;SDS011;8251;53.568;10.018;2023-04-25T09:53:34;3.77;;;1.03;;
16286;SDS011;8251;53.568;10.018;2023-04-25T09:56:03;6.37;;;1.50;;
16286;SDS011;8251;53.568;10.018;2023-04-25T09:58:31;10.67;;;2.53;;
16286;SDS011;8251;53.568;10.018;2023-04-25T10:00:59;6.10;;;1.30;;
16286;SDS011;8251;53.568;10.018;2023-04-25T10:03:29;7.10;;;1.77;;
16286;SDS011;8251;53.568;10.018;2023-04-25T10:05:57;5.50;;;1.57;;
16286;SDS011;8251;53.568;10.018;2023-04-25T10:08:29;4.33;;;1.00;;
16286;SDS011;8251;53.568;10.018;2023-04-25T10:10:59;6.73;;;2.47;;
16286;SDS011;8251;53.568;10.018;2023-04-25T10:13:28;5.37;;;2.03;;
16286;SDS011;8251;53.568;10.018;2023-04-25T10:15:56;6.00;;;1.40;;
16286;SDS011;8251;53.568;10.018;2023-04-25T10:18:24;2.90;;;2.17;;
16286;SDS011;8251;53.568;10.018;2023-04-25T10:20:53;10.33;;;1.20;;
16286;SDS011;8251;53.568;10.018;2023-04-25T10:23:21;7.40;;;1.80;;
16286;SDS011;8251;53.568;10.018;2023-04-25T10:25:50;3.33;;;1.00;;
16286;SDS011;8251;53.568;10.018;2023-04-25T10:28:19;2.97;;;1.20;;
16286;SDS011;8251;53.568;10.018;2023-04-25T10:30:59;4.47;;;1.27;;
16286;SDS011;8251;53.568;10.018;2023-04-25T10:33:29;6.10;;;1.40;;
16286;SDS011;8251;53.568;10.018;2023-04-25T10:36:07;3.07;;;1.30;;
16286;SDS011;8251;53.568;10.018;2023-04-25T10:38:35;6.47;;;1.20;;
16286;SDS011;8251;53.568;10.018;2023-04-25T10:41:05;7.53;;;1.53;;
16286;SDS011;8251;53.568;10.018;2023-04-25T10:43:34;7.80;;;1.63;;
16286;SDS011;8251;53.568;10.018;2023-04-25T10:46:12;8.23;;;2.17;;
16286;SDS011;8251;53.568;10.018;2023-04-25T10:48:43;3.63;;;1.57;;
16286;SDS011;8251;53.568;10.018;2023-04-25T10:51:19;5.90;;;1.40;;
16286;SDS011;8251;53.568;10.018;2023-04-25T10:53:48;4.73;;;2.30;;
16286;SDS011;8251;53.568;10.018;2023-04-25T10:56:26;3.93;;;2.40;;
16286;SDS011;8251;53.568;10.018;2023-04-25T10:59:07;7.27;;;1.60;;
16286;SDS011;8251;53.568;10.018;2023-04-25T11:01:36;6.63;;;1.33;;
16286;SDS011;8251;53.568;10.018;2023-04-25T11:04:05;5.63;;;1.30;;
16286;SDS011;8251;53.568;10.018;2023-04-25T11:06:37;5.43;;;1.30;;
16286;SDS011;8251;53.568;10.018;2023-04-25T11:09:14;9.57;;;1.77;;
16286;SDS011;8251;53.568;10.018;2023-04-25T11:11:55;12.30;;;1.67;;
16286;SDS011;8251;53.568;10.018;2023-04-25T11:14:34;6.97;;;1.80;;
16286;SDS011;8251;53.568;10.018;2023-04-25T11:17:06;5.00;;;1.53;;
16286;SDS011;8251;53.568;10.018;2023-04-25T11:19:34;8.83;;;1.83;;
16286;SDS011;8251;53.568;10.018;2023-04-25T11:22:01;3.10;;;1.63;;
16286;SDS011;8251;53.568;10.018;2023-04-25T11:24:33;8.83;;;1.53;;
16286;SDS011;8251;53.568;10.018;2023-04-25T11:27:03;4.90;;;1.47;;
16286;SDS011;8251;53.568;10.018;2023-04-25T11:29:34;5.27;;;1.40;;
16286;SDS011;8251;53.568;10.018;2023-04-25T11:32:02;6.93;;;1.70;;
16286;SDS011;8251;53.568;10.018;2023-04-25T11:34:29;6.23;;;1.37;;
16286;SDS011;8251;53.568;10.018;2023-04-25T11:36:57;1.87;;;1.20;;
16286;SDS011;8251;53.568;10.018;2023-04-25T11:39:25;5.20;;;1.80;;
16286;SDS011;8251;53.568;10.018;2023-04-25T11:41:52;5.43;;;1.60;;
16286;SDS011;8251;53.568;10.018;2023-04-25T11:44:21;6.33;;;1.53;;
16286;SDS011;8251;53.568;10.018;2023-04-25T11:46:49;2.57;;;1.00;;
16286;SDS011;8251;53.568;10.018;2023-04-25T11:49:16;5.53;;;2.00;;
16286;SDS011;8251;53.568;10.018;2023-04-25T11:51:44;7.80;;;1.57;;
16286;SDS011;8251;53.568;10.018;2023-04-25T11:54:12;4.13;;;1.27;;
16286;SDS011;8251;53.568;10.018;2023-04-25T11:56:40;8.90;;;1.87;;
16286;SDS011;8251;53.568;10.018;2023-04-25T11:59:08;4.90;;;1.33;;
16286;SDS011;8251;53.568;10.018;2023-04-25T12:01:37;3.90;;;1.53;;
16286;SDS011;8251;53.568;10.018;2023-04-25T12:04:11;4.87;;;1.40;;
16286;SDS011;8251;53.568;10.018;2023-04-25T12:06:43;3.40;;;1.57;;
16286;SDS011;8251;53.568;10.018;2023-04-25T12:09:12;6.90;;;1.57;;
16286;SDS011;8251;53.568;10.018;2023-04-25T12:11:40;6.83;;;1.60;;
16286;SDS011;8251;53.568;10.018;2023-04-25T12:14:08;3.77;;;1.23;;
16286;SDS011;8251;53.568;10.018;2023-04-25T12:16:46;4.10;;;1.13;;
16286;SDS011;8251;53.568;10.018;2023-04-25T12:19:14;6.13;;;1.00;;
16286;SDS011;8251;53.568;10.018;2023-04-25T12:21:42;2.43;;;1.00;;
16286;SDS011;8251;53.568;10.018;2023-04-25T12:24:10;3.70;;;1.07;;
16286;SDS011;8251;53.568;10.018;2023-04-25T12:29:26;1.90;;;0.80;;
16286;SDS011;8251;53.568;10.018;2023-04-25T12:31:56;8.30;;;1.33;;
16286;SDS011;8251;53.568;10.018;2023-04-25T12:34:23;3.63;;;1.17;;
16286;SDS011;8251;53.568;10.018;2023-04-25T12:36:51;2.60;;;1.20;;
16286;SDS011;8251;53.568;10.018;2023-04-25T12:39:19;5.47;;;1.73;;
16286;SDS011;8251;53.568;10.018;2023-04-25T12:41:47;4.53;;;1.90;;
16286;SDS011;8251;53.568;10.018;2023-04-25T12:44:18;3.80;;;1.20;;
16286;SDS011;8251;53.568;10.018;2023-04-25T12:46:46;7.50;;;2.67;;
16286;SDS011;8251;53.568;10.018;2023-04-25T12:49:15;14.37;;;4.10;;
16286;SDS011;8251;53.568;10.018;2023-04-25T12:51:45;5.03;;;1.70;;
16286;SDS011;8251;53.568;10.018;2023-04-25T12:54:15;10.67;;;2.80;;
16286;SDS011;8251;53.568;10.018;2023-04-25T12:56:42;4.23;;;1.90;;
16286;SDS011;8251;53.568;10.018;2023-04-25T12:59:09;12.13;;;2.80;;
16286;SDS011;8251;53.568;10.018;2023-04-25T13:01:37;8.10;;;1.70;;
16286;SDS011;8251;53.568;10.018;2023-04-25T13:04:04;10.43;;;2.10;;
16286;SDS011;8251;53.568;10.018;2023-04-25T13:06:32;4.10;;;1.57;;
16286;SDS011;8251;53.568;10.018;2023-04-25T13:08:59;4.37;;;1.30;;
16286;SDS011;8251;53.568;10.018;2023-04-25T13:11:26;6.70;;;1.27;;
16286;SDS011;8251;53.568;10.018;2023-04-25T13:13:53;4.67;;;1.40;;
16286;SDS011;8251;53.568;10.018;2023-04-25T13:16:20;3.03;;;1.20;;
16286;SDS011;8251;53.568;10.018;2023-04-25T13:18:47;7.50;;;2.67;;
16286;SDS011;8251;53.568;10.018;2023-04-25T13:21:14;6.37;;;1.50;;
16286;SDS011;8251;53.568;10.018;2023-04-25T13:23:43;4.17;;;1.13;;
16286;SDS011;8251;53.568;10.018;2023-04-25T13:26:11;2.80;;;1.17;;
16286;SDS011;8251;53.568;10.018;2023-04-25T13:28:39;1.37;;;0.90;;
16286;SDS011;8251;53.568;10.018;2023-04-25T13:31:06;5.73;;;1.30;;
16286;SDS011;8251;53.568;10.018;2023-04-25T13:33:33;5.97;;;1.13;;
16286;SDS011;8251;53.568;10.018;2023-04-25T13:36:00;3.33;;;1.23;;
16286;SDS011;8251;53.568;10.018;2023-04-25T13:38:29;1.70;;;1.20;;
16286;SDS011;8251;53.568;10.018;2023-04-25T13:41:14;6.40;;;1.20;;
16286;SDS011;8251;53.568;10.018;2023-04-25T13:43:45;3.17;;;1.33;;
16286;SDS011;8251;53.568;10.018;2023-04-25T13:46:13;9.17;;;1.27;;
16286;SDS011;8251;53.568;10.018;2023-04-25T13:48:41;9.70;;;3.07;;
16286;SDS011;8251;53.568;10.018;2023-04-25T13:51:12;4.03;;;1.40;;
16286;SDS011;8251;53.568;10.018;2023-04-25T13:53:40;2.57;;;1.43;;
16286;SDS011;8251;53.568;10.018;2023-04-25T13:56:13;3.13;;;1.33;;
16286;SDS011;8251;53.568;10.018;2023-04-25T13:58:40;5.53;;;1.57;;
16286;SDS011;8251;53.568;10.018;2023-04-25T14:01:07;2.77;;;1.17;;
16286;SDS011;8251;53.568;10.018;2023-04-25T14:03:34;2.90;;;1.37;;
16286;SDS011;8251;53.568;10.018;2023-04-25T14:06:01;2.13;;;1.00;;
16286;SDS011;8251;53.568;10.018;2023-04-25T14:08:29;1.60;;;0.90;;
16286;SDS011;8251;53.568;10.018;2023-04-25T14:10:56;2.13;;;1.30;;
16286;SDS011;8251;53.568;10.018;2023-04-25T14:13:25;3.80;;;1.43;;
16286;SDS011;8251;53.568;10.018;2023-04-25T14:15:52;4.53;;;1.13;;
16286;SDS011;8251;53.568;10.018;2023-04-25T14:18:19;4.23;;;1.30;;
16286;SDS011;8251;53.568;10.018;2023-04-25T14:20:46;3.63;;;1.30;;
16286;SDS011;8251;53.568;10.018;2023-04-25T14:23:13;2.77;;;1.23;;
16286;SDS011;8251;53.568;10.018;2023-04-25T14:25:40;7.23;;;1.23;;
16286;SDS011;8251;53.568;10.018;2023-04-25T14:28:08;4.90;;;1.30;;
16286;SDS011;8251;53.568;10.018;2023-04-25T14:30:37;3.27;;;1.20;;
16286;SDS011;8251;53.568;10.018;2023-04-25T14:33:04;3.30;;;1.23;;
16286;SDS011;8251;53.568;10.018;2023-04-25T14:35:32;5.57;;;1.20;;
16286;SDS011;8251;53.568;10.018;2023-04-25T14:37:59;2.90;;;1.07;;
16286;SDS011;8251;53.568;10.018;2023-04-25T14:40:26;3.00;;;1.03;;
16286;SDS011;8251;53.568;10.018;2023-04-25T14:42:58;2.27;;;0.90;;
16286;SDS011;8251;53.568;10.018;2023-04-25T14:45:28;5.93;;;1.13;;
16286;SDS011;8251;53.568;10.018;2023-04-25T14:47:56;4.27;;;1.10;;
16286;SDS011;8251;53.568;10.018;2023-04-25T14:50:23;5.13;;;1.70;;
16286;SDS011;8251;53.568;10.018;2023-04-25T14:52:50;2.90;;;1.30;;
16286;SDS011;8251;53.568;10.018;2023-04-25T14:55:17;3.73;;;1.03;;